Terminal Aerodrome Forecast
Issued by NWS

Home | Current Version | Previous Version | Text Only | Print | Product List | Glossary On
Versions: 1 2 3 4 5 6 7 8 9 10 11 12 13 14 15 16
000
FTUS43 KGRB 272327
TAFMTW
TAF
KMTW 272327Z 2800/2824 17006KT P6SM BKN250
     FM281200 18003KT P6SM SCT050 BKN100
     FM281500 21007KT P6SM SCT035 OVC080 PROB30 2815/2820 -RA OVC035
     FM282000 15007KT 6SM RA BKN022 OVC035=

USA.gov is the U.S. government's official web portal to all federal, state and local government web resources and services.